sensor_id;sensor_type;location;lat;lon;timestamp;pressure;altitude;pressure_sealevel;temperature;humidity
54172;BME280;40076;52.354;4.970;2023-02-28T00:00:46;103260.47;;;5.42;100.00
54172;BME280;40076;52.354;4.970;2023-02-28T00:03:12;103266.91;;;5.41;100.00
54172;BME280;40076;52.354;4.970;2023-02-28T00:05:37;103259.44;;;5.43;100.00
54172;BME280;40076;52.354;4.970;2023-02-28T00:08:02;103261.28;;;5.42;100.00
54172;BME280;40076;52.354;4.970;2023-02-28T00:10:30;103263.41;;;5.40;100.00
54172;BME280;40076;52.354;4.970;2023-02-28T00:13:01;103251.84;;;5.40;100.00
54172;BME280;40076;52.354;4.970;2023-02-28T00:15:31;103256.19;;;5.41;100.00
54172;BME280;40076;52.354;4.970;2023-02-28T00:17:57;103254.31;;;5.41;100.00
54172;BME280;40076;52.354;4.970;2023-02-28T00:20:23;103253.50;;;5.41;100.00
54172;BME280;40076;52.354;4.970;2023-02-28T00:22:52;103259.91;;;5.40;100.00
54172;BME280;40076;52.354;4.970;2023-02-28T00:25:22;103253.72;;;5.39;100.00
54172;BME280;40076;52.354;4.970;2023-02-28T00:27:48;103256.63;;;5.38;100.00
54172;BME280;40076;52.354;4.970;2023-02-28T00:30:17;103258.25;;;5.39;100.00
54172;BME280;40076;52.354;4.970;2023-02-28T00:32:43;103255.78;;;5.37;100.00
54172;BME280;40076;52.354;4.970;2023-02-28T00:35:09;103263.00;;;5.37;100.00
54172;BME280;40076;52.354;4.970;2023-02-28T00:37:36;103264.88;;;5.36;100.00
54172;BME280;40076;52.354;4.970;2023-02-28T00:40:01;103262.19;;;5.36;100.00
54172;BME280;40076;52.354;4.970;2023-02-28T00:42:29;103259.72;;;5.35;100.00
54172;BME280;40076;52.354;4.970;2023-02-28T00:44:55;103260.56;;;5.35;100.00
54172;BME280;40076;52.354;4.970;2023-02-28T00:47:23;103255.19;;;5.35;100.00
54172;BME280;40076;52.354;4.970;2023-02-28T00:49:48;103261.38;;;5.36;100.00
54172;BME280;40076;52.354;4.970;2023-02-28T00:52:14;103261.84;;;5.33;100.00
54172;BME280;40076;52.354;4.970;2023-02-28T00:54:39;103255.44;;;5.34;100.00
54172;BME280;40076;52.354;4.970;2023-02-28T00:57:04;103258.13;;;5.34;100.00
54172;BME280;40076;52.354;4.970;2023-02-28T00:59:30;103251.94;;;5.33;100.00
54172;BME280;40076;52.354;4.970;2023-02-28T01:01:55;103251.94;;;5.33;100.00
54172;BME280;40076;52.354;4.970;2023-02-28T01:04:20;103242.03;;;5.34;100.00
54172;BME280;40076;52.354;4.970;2023-02-28T01:06:46;103250.28;;;5.32;100.00
54172;BME280;40076;52.354;4.970;2023-02-28T01:09:11;103252.97;;;5.32;100.00
54172;BME280;40076;52.354;4.970;2023-02-28T01:11:37;103254.00;;;5.31;100.00
54172;BME280;40076;52.354;4.970;2023-02-28T01:14:02;103254.84;;;5.32;100.00
54172;BME280;40076;52.354;4.970;2023-02-28T01:16:29;103252.97;;;5.32;100.00
54172;BME280;40076;52.354;4.970;2023-02-28T01:18:55;103236.88;;;5.32;100.00
54172;BME280;40076;52.354;4.970;2023-02-28T01:21:21;103245.50;;;5.34;100.00
54172;BME280;40076;52.354;4.970;2023-02-28T01:23:47;103234.78;;;5.34;100.00
54172;BME280;40076;52.354;4.970;2023-02-28T01:26:16;103225.69;;;5.35;100.00
54172;BME280;40076;52.354;4.970;2023-02-28T01:28:42;103231.06;;;5.35;100.00
54172;BME280;40076;52.354;4.970;2023-02-28T01:31:08;103230.03;;;5.36;100.00
54172;BME280;40076;52.354;4.970;2023-02-28T01:33:34;103227.34;;;5.36;100.00
54172;BME280;40076;52.354;4.970;2023-02-28T01:36:03;103230.25;;;5.35;100.00
54172;BME280;40076;52.354;4.970;2023-02-28T01:38:29;103224.88;;;5.35;100.00
54172;BME280;40076;52.354;4.970;2023-02-28T01:40:54;103232.91;;;5.35;100.00
54172;BME280;40076;52.354;4.970;2023-02-28T01:43:31;103231.06;;;5.35;100.00
54172;BME280;40076;52.354;4.970;2023-02-28T01:45:58;103226.53;;;5.36;100.00
54172;BME280;40076;52.354;4.970;2023-02-28T01:48:37;103231.06;;;5.35;100.00
54172;BME280;40076;52.354;4.970;2023-02-28T01:51:11;103228.38;;;5.35;100.00
54172;BME280;40076;52.354;4.970;2023-02-28T01:53:42;103223.28;;;5.34;100.00
54172;BME280;40076;52.354;4.970;2023-02-28T01:56:11;103226.53;;;5.36;100.00
54172;BME280;40076;52.354;4.970;2023-02-28T01:58:38;103223.03;;;5.35;100.00
54172;BME280;40076;52.354;4.970;2023-02-28T02:01:04;103230.03;;;5.36;100.00
54172;BME280;40076;52.354;4.970;2023-02-28T02:03:30;103226.31;;;5.37;100.00
54172;BME280;40076;52.354;4.970;2023-02-28T02:05:56;103225.25;;;5.38;100.00
54172;BME280;40076;52.354;4.970;2023-02-28T02:08:25;103225.25;;;5.38;100.00
54172;BME280;40076;52.354;4.970;2023-02-28T02:10:56;103212.91;;;5.37;100.00
54172;BME280;40076;52.354;4.970;2023-02-28T02:19:23;103206.13;;;5.35;100.00
54172;BME280;40076;52.354;4.970;2023-02-28T02:30:05;103207.53;;;5.37;100.00
54172;BME280;40076;52.354;4.970;2023-02-28T02:40:25;103206.50;;;5.38;100.00
54172;BME280;40076;52.354;4.970;2023-02-28T02:43:02;103206.28;;;5.40;100.00
54172;BME280;40076;52.354;4.970;2023-02-28T02:45:35;103211.41;;;5.41;100.00
54172;BME280;40076;52.354;4.970;2023-02-28T02:48:05;103195.34;;;5.41;100.00
54172;BME280;40076;52.354;4.970;2023-02-28T02:50:38;103208.50;;;5.43;100.00
54172;BME280;40076;52.354;4.970;2023-02-28T02:53:05;103201.03;;;5.45;100.00
54172;BME280;40076;52.354;4.970;2023-02-28T02:55:34;103205.38;;;5.46;100.00
54172;BME280;40076;52.354;4.970;2023-02-28T02:58:05;103207.00;;;5.47;100.00
54172;BME280;40076;52.354;4.970;2023-02-28T03:00:40;103198.75;;;5.49;100.00
54172;BME280;40076;52.354;4.970;2023-02-28T03:03:09;103204.66;;;5.51;100.00
54172;BME280;40076;52.354;4.970;2023-02-28T03:05:42;103206.09;;;5.53;100.00
54172;BME280;40076;52.354;4.970;2023-02-28T03:08:10;103208.78;;;5.53;100.00
54172;BME280;40076;52.354;4.970;2023-02-28T03:10:37;103207.72;;;5.54;100.00
54172;BME280;40076;52.354;4.970;2023-02-28T03:16:13;103209.59;;;5.54;100.00
54172;BME280;40076;52.354;4.970;2023-02-28T03:24:48;103200.00;;;5.46;100.00
54172;BME280;40076;52.354;4.970;2023-02-28T03:27:07;103198.59;;;5.43;100.00
54172;BME280;40076;52.354;4.970;2023-02-28T03:29:39;103198.81;;;5.42;100.00
54172;BME280;40076;52.354;4.970;2023-02-28T03:32:16;103200.69;;;5.41;100.00
54172;BME280;40076;52.354;4.970;2023-02-28T03:34:58;103193.91;;;5.39;100.00
54172;BME280;40076;52.354;4.970;2023-02-28T03:37:26;103191.44;;;5.37;100.00
54172;BME280;40076;52.354;4.970;2023-02-28T03:40:04;103194.34;;;5.36;100.00
54172;BME280;40076;52.354;4.970;2023-02-28T03:42:34;103193.41;;;5.30;100.00
54172;BME280;40076;52.354;4.970;2023-02-28T03:45:02;103201.00;;;5.33;100.00
54172;BME280;40076;52.354;4.970;2023-02-28T03:50:08;103206.81;;;5.30;100.00
54172;BME280;40076;52.354;4.970;2023-02-28T03:52:42;103206.81;;;5.30;100.00
54172;BME280;40076;52.354;4.970;2023-02-28T03:55:11;103212.16;;;5.30;100.00
54172;BME280;40076;52.354;4.970;2023-02-28T03:58:08;103213.41;;;5.28;100.00
54172;BME280;40076;52.354;4.970;2023-02-28T04:00:41;103204.56;;;5.27;100.00
54172;BME280;40076;52.354;4.970;2023-02-28T04:03:09;103206.41;;;5.27;100.00
54172;BME280;40076;52.354;4.970;2023-02-28T04:05:46;103199.88;;;5.23;100.00
54172;BME280;40076;52.354;4.970;2023-02-28T04:08:14;103201.75;;;5.22;100.00
54172;BME280;40076;52.354;4.970;2023-02-28T04:10:39;103200.94;;;5.22;100.00
54172;BME280;40076;52.354;4.970;2023-02-28T04:13:05;103206.50;;;5.20;100.00
54172;BME280;40076;52.354;4.970;2023-02-28T04:15:30;103205.47;;;5.21;100.00
54172;BME280;40076;52.354;4.970;2023-02-28T04:17:57;103199.06;;;5.22;100.00
54172;BME280;40076;52.354;4.970;2023-02-28T04:20:22;103199.06;;;5.22;100.00
54172;BME280;40076;52.354;4.970;2023-02-28T04:22:47;103199.06;;;5.22;100.00
54172;BME280;40076;52.354;4.970;2023-02-28T04:25:13;103191.03;;;5.22;100.00
54172;BME280;40076;52.354;4.970;2023-02-28T04:27:38;103190.19;;;5.22;100.00
54172;BME280;40076;52.354;4.970;2023-02-28T04:30:04;103199.28;;;5.21;100.00
54172;BME280;40076;52.354;4.970;2023-02-28T04:32:29;103195.78;;;5.20;100.00
54172;BME280;40076;52.354;4.970;2023-02-28T04:34:54;103191.47;;;5.19;100.00
54172;BME280;40076;52.354;4.970;2023-02-28T04:37:20;103189.84;;;5.18;100.00
54172;BME280;40076;52.354;4.970;2023-02-28T04:39:45;103192.53;;;5.18;100.00
54172;BME280;40076;52.354;4.970;2023-02-28T04:42:12;103184.50;;;5.18;100.00
54172;BME280;40076;52.354;4.970;2023-02-28T04:44:38;103190.66;;;5.19;100.00
54172;BME280;40076;52.354;4.970;2023-02-28T04:47:03;103196.81;;;5.19;100.00
54172;BME280;40076;52.354;4.970;2023-02-28T04:49:29;103195.22;;;5.18;100.00
54172;BME280;40076;52.354;4.970;2023-02-28T04:51:54;103189.03;;;5.18;100.00
54172;BME280;40076;52.354;4.970;2023-02-28T04:54:19;103186.34;;;5.18;100.00
54172;BME280;40076;52.354;4.970;2023-02-28T04:56:45;103188.22;;;5.17;100.00
54172;BME280;40076;52.354;4.970;2023-02-28T04:59:10;103189.03;;;5.18;100.00
54172;BME280;40076;52.354;4.970;2023-02-28T05:01:35;103195.22;;;5.18;100.00
54172;BME280;40076;52.354;4.970;2023-02-28T05:04:03;103186.34;;;5.18;100.00
54172;BME280;40076;52.354;4.970;2023-02-28T05:06:30;103191.72;;;5.18;100.00
54172;BME280;40076;52.354;4.970;2023-02-28T05:08:56;103181.00;;;5.18;100.00
54172;BME280;40076;52.354;4.970;2023-02-28T05:11:31;103188.00;;;5.19;100.00
54172;BME280;40076;52.354;4.970;2023-02-28T05:14:01;103184.50;;;5.18;100.00
54172;BME280;40076;52.354;4.970;2023-02-28T05:16:27;103185.31;;;5.19;100.00
54172;BME280;40076;52.354;4.970;2023-02-28T05:18:52;103192.28;;;5.20;100.00
54172;BME280;40076;52.354;4.970;2023-02-28T05:23:58;103192.28;;;5.20;100.00
54172;BME280;40076;52.354;4.970;2023-02-28T05:26:24;103189.84;;;5.18;100.00
54172;BME280;40076;52.354;4.970;2023-02-28T05:28:50;103197.06;;;5.18;100.00
54172;BME280;40076;52.354;4.970;2023-02-28T05:31:15;103191.09;;;5.16;100.00
54172;BME280;40076;52.354;4.970;2023-02-28T05:33:41;103209.72;;;5.11;100.00
54172;BME280;40076;52.354;4.970;2023-02-28T05:36:07;103213.06;;;5.06;100.00
54172;BME280;40076;52.354;4.970;2023-02-28T05:38:32;103211.91;;;5.02;100.00
54172;BME280;40076;52.354;4.970;2023-02-28T05:40:58;103213.16;;;4.99;100.00
54172;BME280;40076;52.354;4.970;2023-02-28T05:43:23;103213.56;;;4.96;100.00
54172;BME280;40076;52.354;4.970;2023-02-28T05:45:49;103206.81;;;4.94;100.00
54172;BME280;40076;52.354;4.970;2023-02-28T05:48:14;103207.25;;;4.91;100.00
54172;BME280;40076;52.354;4.970;2023-02-28T05:50:39;103203.16;;;4.88;100.00
54172;BME280;40076;52.354;4.970;2023-02-28T05:53:06;103212.47;;;4.86;100.00
54172;BME280;40076;52.354;4.970;2023-02-28T05:55:31;103206.50;;;4.84;100.00
54172;BME280;40076;52.354;4.970;2023-02-28T05:57:56;103210.44;;;4.81;100.00
54172;BME280;40076;52.354;4.970;2023-02-28T06:00:25;103209.88;;;4.79;100.00
54172;BME280;40076;52.354;4.970;2023-02-28T06:02:50;103198.56;;;4.77;100.00
54172;BME280;40076;52.354;4.970;2023-02-28T06:05:17;103206.59;;;4.77;100.00
54172;BME280;40076;52.354;4.970;2023-02-28T06:07:43;103211.13;;;4.77;100.00
54172;BME280;40076;52.354;4.970;2023-02-28T06:10:10;103214.84;;;4.76;100.00
54172;BME280;40076;52.354;4.970;2023-02-28T06:12:36;103227.63;;;4.74;100.00
54172;BME280;40076;52.354;4.970;2023-02-28T06:15:02;103220.25;;;4.69;100.00
54172;BME280;40076;52.354;4.970;2023-02-28T06:17:27;103224.81;;;4.69;100.00
54172;BME280;40076;52.354;4.970;2023-02-28T06:19:53;103239.44;;;4.66;100.00
54172;BME280;40076;52.354;4.970;2023-02-28T06:22:18;103228.97;;;4.64;100.00
54172;BME280;40076;52.354;4.970;2023-02-28T06:24:43;103229.81;;;4.58;100.00
54172;BME280;40076;52.354;4.970;2023-02-28T06:27:08;103227.81;;;4.54;100.00
54172;BME280;40076;52.354;4.970;2023-02-28T06:29:35;103235.25;;;4.52;100.00
54172;BME280;40076;52.354;4.970;2023-02-28T06:32:00;103237.56;;;4.48;100.00
54172;BME280;40076;52.354;4.970;2023-02-28T06:34:26;103233.66;;;4.44;100.00
54172;BME280;40076;52.354;4.970;2023-02-28T06:36:51;103233.88;;;4.43;100.00
54172;BME280;40076;52.354;4.970;2023-02-28T06:39:17;103240.50;;;4.40;100.00
54172;BME280;40076;52.354;4.970;2023-02-28T06:41:43;103240.50;;;4.40;100.00
54172;BME280;40076;52.354;4.970;2023-02-28T06:44:16;103235.78;;;4.36;100.00
54172;BME280;40076;52.354;4.970;2023-02-28T06:46:43;103251.50;;;4.32;100.00
54172;BME280;40076;52.354;4.970;2023-02-28T06:49:10;103245.16;;;4.26;100.00
54172;BME280;40076;52.354;4.970;2023-02-28T06:51:39;103251.75;;;4.24;100.00
54172;BME280;40076;52.354;4.970;2023-02-28T06:54:05;103252.19;;;4.21;100.00
54172;BME280;40076;52.354;4.970;2023-02-28T06:56:31;103256.53;;;4.15;100.00
54172;BME280;40076;52.354;4.970;2023-02-28T06:58:57;103252.88;;;4.10;100.00
54172;BME280;40076;52.354;4.970;2023-02-28T07:01:22;103260.50;;;4.06;100.00
54172;BME280;40076;52.354;4.970;2023-02-28T07:03:49;103259.31;;;4.02;100.00
54172;BME280;40076;52.354;4.970;2023-02-28T07:06:19;103257.06;;;3.99;100.00
54172;BME280;40076;52.354;4.970;2023-02-28T07:08:44;103262.03;;;3.96;100.00
54172;BME280;40076;52.354;4.970;2023-02-28T07:11:10;103270.91;;;3.89;100.00
54172;BME280;40076;52.354;4.970;2023-02-28T07:13:36;103267.84;;;3.86;100.00
54172;BME280;40076;52.354;4.970;2023-02-28T07:16:05;103274.88;;;3.80;100.00
54172;BME280;40076;52.354;4.970;2023-02-28T07:18:31;103276.31;;;3.76;100.00
54172;BME280;40076;52.354;4.970;2023-02-28T07:20:57;103275.94;;;3.73;100.00
54172;BME280;40076;52.354;4.970;2023-02-28T07:23:22;103282.53;;;3.70;100.00
54172;BME280;40076;52.354;4.970;2023-02-28T07:25:49;103276.56;;;3.68;100.00
54172;BME280;40076;52.354;4.970;2023-02-28T07:28:15;103280.50;;;3.66;100.00
54172;BME280;40076;52.354;4.970;2023-02-28T07:30:40;103276.41;;;3.63;100.00
54172;BME280;40076;52.354;4.970;2023-02-28T07:33:06;103281.94;;;3.62;100.00
54172;BME280;40076;52.354;4.970;2023-02-28T07:35:31;103288.78;;;3.58;100.00
54172;BME280;40076;52.354;4.970;2023-02-28T07:37:58;103286.09;;;3.58;100.00
54172;BME280;40076;52.354;4.970;2023-02-28T07:40:23;103290.81;;;3.56;100.00
54172;BME280;40076;52.354;4.970;2023-02-28T07:42:49;103293.91;;;3.53;100.00
54172;BME280;40076;52.354;4.970;2023-02-28T07:45:14;103290.22;;;3.47;100.00
54172;BME280;40076;52.354;4.970;2023-02-28T07:47:40;103288.78;;;3.44;100.00
54172;BME280;40076;52.354;4.970;2023-02-28T07:50:09;103292.50;;;3.43;100.00
54172;BME280;40076;52.354;4.970;2023-02-28T07:52:36;103289.22;;;3.41;100.00
54172;BME280;40076;52.354;4.970;2023-02-28T07:55:02;103292.72;;;3.42;100.00
54172;BME280;40076;52.354;4.970;2023-02-28T07:57:27;103284.91;;;3.40;100.00
54172;BME280;40076;52.354;4.970;2023-02-28T07:59:52;103281.41;;;3.40;100.00
54172;BME280;40076;52.354;4.970;2023-02-28T08:02:18;103288.63;;;3.39;100.00
54172;BME280;40076;52.354;4.970;2023-02-28T08:04:44;103294.78;;;3.40;100.00
54172;BME280;40076;52.354;4.970;2023-02-28T08:07:11;103290.66;;;3.37;100.00
54172;BME280;40076;52.354;4.970;2023-02-28T08:09:38;103279.16;;;3.37;100.00
54172;BME280;40076;52.354;4.970;2023-02-28T08:12:04;103286.34;;;3.36;100.00
54172;BME280;40076;52.354;4.970;2023-02-28T08:14:29;103288.81;;;3.38;100.00
54172;BME280;40076;52.354;4.970;2023-02-28T08:16:55;103293.13;;;3.39;100.00
54172;BME280;40076;52.354;4.970;2023-02-28T08:19:20;103279.16;;;3.37;100.00
54172;BME280;40076;52.354;4.970;2023-02-28T08:21:46;103285.53;;;3.36;100.00
54172;BME280;40076;52.354;4.970;2023-02-28T08:24:11;103288.19;;;3.36;100.00
54172;BME280;40076;52.354;4.970;2023-02-28T08:26:36;103276.50;;;3.37;100.00
54172;BME280;40076;52.354;4.970;2023-02-28T08:29:01;103287.19;;;3.37;100.00
54172;BME280;40076;52.354;4.970;2023-02-28T08:31:27;103295.00;;;3.38;100.00
54172;BME280;40076;52.354;4.970;2023-02-28T08:33:52;103285.13;;;3.39;100.00
54172;BME280;40076;52.354;4.970;2023-02-28T08:36:20;103268.47;;;3.37;100.00
54172;BME280;40076;52.354;4.970;2023-02-28T08:38:46;103274.63;;;3.37;100.00
54172;BME280;40076;52.354;4.970;2023-02-28T08:41:12;103284.09;;;3.40;100.00
54172;BME280;40076;52.354;4.970;2023-02-28T08:43:39;103287.38;;;3.42;100.00
54172;BME280;40076;52.354;4.970;2023-02-28T08:46:05;103283.69;;;3.43;100.00
54172;BME280;40076;52.354;4.970;2023-02-28T08:48:34;103279.13;;;3.43;100.00
54172;BME280;40076;52.354;4.970;2023-02-28T08:51:02;103275.22;;;3.46;100.00
54172;BME280;40076;52.354;4.970;2023-02-28T08:53:28;103277.69;;;3.47;100.00
54172;BME280;40076;52.354;4.970;2023-02-28T08:55:58;103280.16;;;3.49;100.00
54172;BME280;40076;52.354;4.970;2023-02-28T08:58:24;103278.91;;;3.52;100.00
54172;BME280;40076;52.354;4.970;2023-02-28T09:00:50;103268.00;;;3.53;100.00
54172;BME280;40076;52.354;4.970;2023-02-28T09:03:15;103271.09;;;3.57;100.00
54172;BME280;40076;52.354;4.970;2023-02-28T09:05:51;103276.81;;;3.60;100.00
54172;BME280;40076;52.354;4.970;2023-02-28T09:08:17;103274.75;;;3.62;100.00
54172;BME280;40076;52.354;4.970;2023-02-28T09:10:42;103274.34;;;3.65;100.00
54172;BME280;40076;52.354;4.970;2023-02-28T09:13:07;103275.53;;;3.69;100.00
54172;BME280;40076;52.354;4.970;2023-02-28T09:15:32;103278.63;;;3.73;100.00
54172;BME280;40076;52.354;4.970;2023-02-28T09:17:58;103284.34;;;3.76;100.00
54172;BME280;40076;52.354;4.970;2023-02-28T09:20:23;103283.94;;;3.79;100.00
54172;BME280;40076;52.354;4.970;2023-02-28T09:22:48;103281.84;;;3.81;100.00
54172;BME280;40076;52.354;4.970;2023-02-28T09:25:14;103284.09;;;3.84;100.00
54172;BME280;40076;52.354;4.970;2023-02-28T09:27:39;103284.72;;;3.86;100.00
54172;BME280;40076;52.354;4.970;2023-02-28T09:30:05;103285.34;;;3.88;100.00
54172;BME280;40076;52.354;4.970;2023-02-28T09:32:30;103293.72;;;3.92;100.00
54172;BME280;40076;52.354;4.970;2023-02-28T09:34:55;103289.00;;;3.94;100.00
54172;BME280;40076;52.354;4.970;2023-02-28T09:37:21;103295.78;;;3.97;100.00
54172;BME280;40076;52.354;4.970;2023-02-28T09:39:46;103295.78;;;3.97;100.00
54172;BME280;40076;52.354;4.970;2023-02-28T09:42:20;103297.84;;;3.95;100.00
54172;BME280;40076;52.354;4.970;2023-02-28T09:44:50;103297.84;;;3.95;100.00
54172;BME280;40076;52.354;4.970;2023-02-28T09:47:27;103296.00;;;3.95;100.00
54172;BME280;40076;52.354;4.970;2023-02-28T09:49:57;103296.56;;;3.97;100.00
54172;BME280;40076;52.354;4.970;2023-02-28T09:52:31;103299.25;;;3.97;100.00
54172;BME280;40076;52.354;4.970;2023-02-28T09:57:42;103307.28;;;3.97;100.00
54172;BME280;40076;52.354;4.970;2023-02-28T10:00:15;103309.75;;;3.99;100.00
54172;BME280;40076;52.354;4.970;2023-02-28T10:03:22;103302.34;;;4.01;100.00
54172;BME280;40076;52.354;4.970;2023-02-28T10:08:26;103307.69;;;4.01;100.00
54172;BME280;40076;52.354;4.970;2023-02-28T10:11:07;103301.31;;;4.02;100.00
54172;BME280;40076;52.354;4.970;2023-02-28T10:16:23;103298.63;;;4.02;100.00
54172;BME280;40076;52.354;4.970;2023-02-28T10:19:01;103304.34;;;4.05;100.00
54172;BME280;40076;52.354;4.970;2023-02-28T10:21:34;103304.13;;;4.07;100.00
54172;BME280;40076;52.354;4.970;2023-02-28T10:26:59;103309.44;;;4.13;100.00
54172;BME280;40076;52.354;4.970;2023-02-28T10:29:26;103307.19;;;4.17;100.00
54172;BME280;40076;52.354;4.970;2023-02-28T10:31:51;103311.28;;;4.19;100.00
54172;BME280;40076;52.354;4.970;2023-02-28T10:34:17;103310.03;;;4.22;100.00
54172;BME280;40076;52.354;4.970;2023-02-28T10:36:42;103314.13;;;4.24;100.00
54172;BME280;40076;52.354;4.970;2023-02-28T10:39:42;103315.31;;;4.28;100.00
54172;BME280;40076;52.354;4.970;2023-02-28T10:44:47;103312.22;;;4.32;100.00
54172;BME280;40076;52.354;4.970;2023-02-28T10:47:15;103312.03;;;4.33;100.00
54172;BME280;40076;52.354;4.970;2023-02-28T10:49:47;103305.63;;;4.34;100.00
54172;BME280;40076;52.354;4.970;2023-02-28T10:52:13;103293.44;;;4.38;100.00
54172;BME280;40076;52.354;4.970;2023-02-28T10:55:18;103303.28;;;4.44;100.00
54172;BME280;40076;52.354;4.970;2023-02-28T10:57:45;103298.53;;;4.46;100.00
54172;BME280;40076;52.354;4.970;2023-02-28T11:00:23;103294.22;;;4.45;100.00
54172;BME280;40076;52.354;4.970;2023-02-28T11:02:52;103289.47;;;4.47;100.00
54172;BME280;40076;52.354;4.970;2023-02-28T11:05:26;103289.00;;;4.50;100.00
54172;BME280;40076;52.354;4.970;2023-02-28T11:07:54;103278.69;;;4.54;100.00
54172;BME280;40076;52.354;4.970;2023-02-28T11:10:21;103286.34;;;4.50;100.00
54172;BME280;40076;52.354;4.970;2023-02-28T11:12:49;103276.84;;;4.54;100.00
54172;BME280;40076;52.354;4.970;2023-02-28T11:17:57;103273.28;;;4.60;100.00
54172;BME280;40076;52.354;4.970;2023-02-28T11:20:27;103268.53;;;4.62;100.00
54172;BME280;40076;52.354;4.970;2023-02-28T11:22:53;103272.66;;;4.65;100.00
54172;BME280;40076;52.354;4.970;2023-02-28T11:25:30;103269.72;;;4.66;100.00
54172;BME280;40076;52.354;4.970;2023-02-28T11:28:02;103270.31;;;4.69;100.00
54172;BME280;40076;52.354;4.970;2023-02-28T11:30:39;103270.47;;;4.74;100.00
54172;BME280;40076;52.354;4.970;2023-02-28T11:33:51;103261.59;;;4.80;100.00
54172;BME280;40076;52.354;4.970;2023-02-28T11:36:23;103262.41;;;4.80;100.00
54172;BME280;40076;52.354;4.970;2023-02-28T11:38:55;103268.34;;;4.82;100.00
54172;BME280;40076;52.354;4.970;2023-02-28T11:44:43;103256.53;;;4.90;100.00
54172;BME280;40076;52.354;4.970;2023-02-28T11:47:32;103252.59;;;4.92;100.00
54172;BME280;40076;52.354;4.970;2023-02-28T11:50:38;103253.19;;;4.94;100.00
54172;BME280;40076;52.354;4.970;2023-02-28T11:53:14;103245.31;;;4.99;100.00
54172;BME280;40076;52.354;4.970;2023-02-28T11:55:45;103245.31;;;4.99;100.00
54172;BME280;40076;52.354;4.970;2023-02-28T11:58:25;103245.69;;;5.03;100.00
54172;BME280;40076;52.354;4.970;2023-02-28T12:07:37;103236.75;;;5.09;100.00
54172;BME280;40076;52.354;4.970;2023-02-28T12:10:20;103233.03;;;5.10;100.00
54172;BME280;40076;52.354;4.970;2023-02-28T12:13:16;103232.56;;;5.13;100.00
54172;BME280;40076;52.354;4.970;2023-02-28T12:24:04;103223.06;;;5.17;100.00
54172;BME280;40076;52.354;4.970;2023-02-28T12:26:42;103221.19;;;5.18;100.00
54172;BME280;40076;52.354;4.970;2023-02-28T12:29:29;103220.94;;;5.19;100.00
54172;BME280;40076;52.354;4.970;2023-02-28T12:32:05;103211.03;;;5.20;99.64
54172;BME280;40076;52.354;4.970;2023-02-28T12:34:34;103214.31;;;5.22;98.70
54172;BME280;40076;52.354;4.970;2023-02-28T12:37:07;103214.31;;;5.22;96.69
54172;BME280;40076;52.354;4.970;2023-02-28T12:39:37;103220.50;;;5.22;96.29
54172;BME280;40076;52.354;4.970;2023-02-28T12:42:10;103216.56;;;5.25;97.03
54172;BME280;40076;52.354;4.970;2023-02-28T12:47:15;103209.09;;;5.27;94.01
54172;BME280;40076;52.354;4.970;2023-02-28T12:49:46;103211.00;;;5.26;93.20
54172;BME280;40076;52.354;4.970;2023-02-28T12:52:19;103203.53;;;5.28;92.88
54172;BME280;40076;52.354;4.970;2023-02-28T12:54:52;103207.03;;;5.29;91.26
54172;BME280;40076;52.354;4.970;2023-02-28T12:57:34;103201.22;;;5.32;91.57
54172;BME280;40076;52.354;4.970;2023-02-28T13:00:13;103205.28;;;5.34;91.09
54172;BME280;40076;52.354;4.970;2023-02-28T13:10:45;103200.53;;;5.36;89.05
54172;BME280;40076;52.354;4.970;2023-02-28T13:13:18;103189.59;;;5.38;88.42
54172;BME280;40076;52.354;4.970;2023-02-28T13:16:05;103190.41;;;5.38;88.64
54172;BME280;40076;52.354;4.970;2023-02-28T13:18:35;103193.91;;;5.39;88.01
54172;BME280;40076;52.354;4.970;2023-02-28T13:21:03;103188.31;;;5.40;87.34
54172;BME280;40076;52.354;4.970;2023-02-28T13:26:05;103188.69;;;5.44;87.48
54172;BME280;40076;52.354;4.970;2023-02-28T13:47:32;103174.00;;;5.47;89.84
54172;BME280;40076;52.354;4.970;2023-02-28T13:53:16;103173.78;;;5.48;90.23
54172;BME280;40076;52.354;4.970;2023-02-28T14:04:49;103168.16;;;5.50;90.34
54172;BME280;40076;52.354;4.970;2023-02-28T14:07:21;103163.41;;;5.52;90.27
54172;BME280;40076;52.354;4.970;2023-02-28T14:09:56;103165.88;;;5.53;90.99
54172;BME280;40076;52.354;4.970;2023-02-28T14:18:13;103157.59;;;5.55;90.76
54172;BME280;40076;52.354;4.970;2023-02-28T14:20:40;103155.75;;;5.55;90.89
54172;BME280;40076;52.354;4.970;2023-02-28T14:23:25;103156.78;;;5.54;90.34
54172;BME280;40076;52.354;4.970;2023-02-28T14:26:03;103155.50;;;5.57;90.91
54172;BME280;40076;52.354;4.970;2023-02-28T14:31:22;103155.63;;;5.62;91.55
54172;BME280;40076;52.354;4.970;2023-02-28T14:34:12;103153.63;;;5.57;91.29
54172;BME280;40076;52.354;4.970;2023-02-28T14:36:42;103154.31;;;5.53;91.01
54172;BME280;40076;52.354;4.970;2023-02-28T14:39:16;103153.50;;;5.52;91.48
54172;BME280;40076;52.354;4.970;2023-02-28T14:41:45;103158.03;;;5.52;90.12
54172;BME280;40076;52.354;4.970;2023-02-28T14:44:21;103151.63;;;5.53;89.94
54172;BME280;40076;52.354;4.970;2023-02-28T14:46:53;103143.38;;;5.54;89.13
54172;BME280;40076;52.354;4.970;2023-02-28T14:49:28;103151.41;;;5.54;88.90
54172;BME280;40076;52.354;4.970;2023-02-28T14:52:09;103153.28;;;5.54;89.31
54172;BME280;40076;52.354;4.970;2023-02-28T14:54:38;103147.69;;;5.55;89.20
54172;BME280;40076;52.354;4.970;2023-02-28T14:57:05;103149.06;;;5.58;89.60
54172;BME280;40076;52.354;4.970;2023-02-28T14:59:32;103152.56;;;5.58;88.62
54172;BME280;40076;52.354;4.970;2023-02-28T15:02:22;103145.13;;;5.60;88.78
54172;BME280;40076;52.354;4.970;2023-02-28T15:04:56;103142.00;;;5.63;89.67